Time;durP1;ratioP1;P1;durP2;ratioP2;P2;SDS_P1;SDS_P2;PMS_P1;PMS_P2;Temp;Humidity;BMP_temperature;BMP_pressure;BME280_temperature;BME280_humidity;BME280_pressure;Samples;Min_cycle;Max_cycle;Signal;HPM_P1;HPM_P2
2021/03/17 00:01:37;;;;;;;3.15;1.20;;;;;;;6.48;32.39;100723.50;5099849;28;20055;-73
2021/03/17 00:05:00;;;;;;;3.28;1.30;;;;;;;6.15;32.92;100715.00;5100531;28;20062;-74
2021/03/17 00:08:23;;;;;;;2.63;1.30;;;;;;;6.12;32.95;100716.09;5090259;28;20058;-73
2021/03/17 00:11:47;;;;;;;2.63;1.40;;;;;;;6.03;33.54;100713.13;5109161;28;20051;-76
2021/03/17 00:15:12;;;;;;;4.25;1.23;;;;;;;5.92;33.44;100712.97;5112588;28;20047;-75
2021/03/17 00:18:35;;;;;;;5.38;1.40;;;;;;;5.97;33.30;100711.72;5099219;28;20058;-73
2021/03/17 00:21:58;;;;;;;2.50;1.17;;;;;;;5.97;33.51;100713.53;5109944;28;20050;-75
2021/03/17 00:25:28;;;;;;;3.17;1.20;;;;;;;5.92;34.08;100711.16;5100764;28;20055;-75
2021/03/17 00:28:51;;;;;;;5.60;1.40;;;;;;;5.83;34.33;100704.56;5103836;28;20050;-75
2021/03/17 00:32:14;;;;;;;3.20;1.42;;;;;;;5.73;34.84;100706.06;5101409;28;20046;-73
2021/03/17 00:35:37;;;;;;;2.83;1.30;;;;;;;5.78;34.60;100703.13;5108691;28;20043;-75
2021/03/17 00:38:59;;;;;;;5.32;1.42;;;;;;;5.73;33.98;100707.88;5109945;28;20054;-75
2021/03/17 00:42:22;;;;;;;3.08;1.40;;;;;;;5.67;34.07;100700.28;5110591;28;20497;-75
2021/03/17 00:45:45;;;;;;;2.85;1.20;;;;;;;5.65;33.91;100696.88;5111352;28;20394;-75
2021/03/17 00:49:00;;;;;;;2.97;1.30;;;;;;;5.60;33.75;100702.47;5097161;28;20042;-75
2021/03/17 00:52:06;;;;;;;4.70;1.27;;;;;;;5.59;33.74;100694.56;5104839;28;20410;-75
2021/03/17 00:55:28;;;;;;;3.45;1.30;;;;;;;5.52;34.20;100696.75;5109182;28;20062;-75
2021/03/17 00:58:36;;;;;;;2.88;1.30;;;;;;;5.48;34.59;100687.22;5108302;28;20505;-73
2021/03/17 01:01:40;;;;;;;2.38;1.25;;;;;;;5.39;35.07;100687.81;5101303;28;20062;-74
2021/03/17 01:04:44;;;;;;;3.28;1.27;;;;;;;5.35;35.24;100688.09;5114883;28;20051;-75
2021/03/17 01:07:49;;;;;;;3.45;1.20;;;;;;;5.29;35.27;100681.34;5115870;28;20054;-76
2021/03/17 01:10:53;;;;;;;2.75;1.27;;;;;;;5.24;35.41;100691.41;5117095;28;20054;-76
2021/03/17 01:13:58;;;;;;;2.80;1.13;;;;;;;5.24;35.39;100691.41;5103503;28;20047;-76
2021/03/17 01:17:03;;;;;;;5.63;1.40;;;;;;;5.18;35.54;100684.63;5113741;28;20067;-73
2021/03/17 01:20:08;;;;;;;6.50;1.20;;;;;;;5.22;35.39;100691.50;5102611;28;20493;-77
2021/03/17 01:23:14;;;;;;;4.35;1.35;;;;;;;5.17;35.52;100688.25;5116570;28;20047;-74
2021/03/17 01:26:18;;;;;;;3.08;1.30;;;;;;;5.17;35.39;100674.97;5112795;28;20392;-73
2021/03/17 01:29:23;;;;;;;2.42;1.40;;;;;;;5.18;35.32;100662.53;5113532;28;20490;-74
2021/03/17 01:32:27;;;;;;;2.30;1.23;;;;;;;5.06;35.60;100673.91;5114702;28;20047;-74
2021/03/17 01:35:32;;;;;;;2.22;1.17;;;;;;;4.99;35.52;100664.56;5103279;28;20051;-74
2021/03/17 01:38:36;;;;;;;2.78;1.17;;;;;;;4.92;36.03;100657.88;5099839;28;20501;-75
2021/03/17 01:41:41;;;;;;;4.68;1.20;;;;;;;4.92;35.79;100655.22;5110439;28;20043;-73
2021/03/17 01:44:45;;;;;;;3.63;1.25;;;;;;;4.87;35.32;100652.84;5114072;28;20054;-76
2021/03/17 01:47:51;;;;;;;4.22;1.48;;;;;;;4.83;35.65;100643.34;5114959;28;20540;-73
2021/03/17 01:50:58;;;;;;;2.28;1.20;;;;;;;4.82;35.24;100640.78;5098277;28;20418;-76
2021/03/17 01:54:04;;;;;;;3.00;1.13;;;;;;;4.89;35.14;100639.47;5100380;28;20034;-74
2021/03/17 01:57:11;;;;;;;2.05;1.08;;;;;;;4.96;34.84;100635.50;5100744;28;20043;-75
2021/03/17 02:00:17;;;;;;;3.22;1.35;;;;;;;4.93;34.92;100641.00;5108438;28;20035;-76
2021/03/17 02:03:21;;;;;;;3.08;1.27;;;;;;;4.91;34.69;100637.59;5112664;28;20046;-74
2021/03/17 02:06:26;;;;;;;3.03;1.30;;;;;;;4.91;34.80;100635.78;5113883;28;20524;-75
2021/03/17 02:09:30;;;;;;;3.60;1.67;;;;;;;4.90;34.53;100627.88;5102913;28;20062;-74
2021/03/17 02:12:46;;;;;;;4.30;1.30;;;;;;;4.97;34.32;100621.22;5110487;28;20042;-73
2021/03/17 02:16:15;;;;;;;3.53;1.58;;;;;;;4.98;34.27;100621.16;5099680;28;20505;-73
2021/03/17 02:20:02;;;;;;;3.28;1.58;;;;;;;4.99;34.34;100608.69;5106271;28;20050;-75
2021/03/17 02:23:21;;;;;;;3.38;1.30;;;;;;;5.00;34.22;100615.75;5010914;28;20158;-74
2021/03/17 02:27:06;;;;;;;2.47;1.20;;;;;;;4.93;34.74;100606.44;5011947;28;20049;-76
2021/03/17 02:30:28;;;;;;;3.15;1.42;;;;;;;4.90;34.89;100604.81;5013137;28;20045;-76
2021/03/17 02:33:55;;;;;;;2.50;1.33;;;;;;;4.89;35.10;100608.41;5001367;28;20037;-74
2021/03/17 02:37:04;;;;;;;4.22;1.30;;;;;;;4.84;35.14;100594.53;5005582;28;20062;-75
2021/03/17 02:40:17;;;;;;;4.45;1.33;;;;;;;4.76;35.50;100598.59;5009183;28;20049;-76
2021/03/17 02:43:34;;;;;;;2.70;1.23;;;;;;;4.71;35.70;100601.56;5011073;28;20141;-75
2021/03/17 02:46:40;;;;;;;2.78;1.20;;;;;;;4.60;35.97;100603.97;5012859;28;20146;-74
2021/03/17 02:49:48;;;;;;;3.38;1.33;;;;;;;4.54;36.08;100589.22;5011074;28;20045;-74
2021/03/17 02:52:55;;;;;;;3.30;1.55;;;;;;;4.51;35.82;100600.06;5012201;28;20045;-76
2021/03/17 02:56:10;;;;;;;4.03;1.55;;;;;;;4.48;36.43;100592.28;5010431;28;20072;-75
2021/03/17 02:59:21;;;;;;;2.85;1.40;;;;;;;4.45;36.58;100596.91;5078344;28;20051;-73
2021/03/17 03:02:25;;;;;;;2.47;1.10;;;;;;;4.35;36.80;100591.28;5085030;28;20043;-74
2021/03/17 03:05:30;;;;;;;2.65;1.10;;;;;;;4.32;37.00;100593.28;5098273;28;20505;-75
2021/03/17 03:08:37;;;;;;;2.97;0.90;;;;;;;4.27;37.16;100590.84;5114327;28;20047;-74
2021/03/17 03:11:43;;;;;;;2.42;1.20;;;;;;;4.26;37.00;100586.50;5110965;28;20046;-74
2021/03/17 03:14:48;;;;;;;3.38;1.50;;;;;;;4.18;37.11;100587.88;5112850;28;20047;-74
2021/03/17 03:17:55;;;;;;;2.90;1.50;;;;;;;4.15;37.10;100586.25;5113647;28;20046;-73
2021/03/17 03:21:00;;;;;;;4.40;1.40;;;;;;;4.15;36.95;100586.25;5097822;28;20034;-73
2021/03/17 03:24:06;;;;;;;3.53;1.60;;;;;;;4.10;36.85;100584.84;5111077;28;20406;-74
2021/03/17 03:27:13;;;;;;;4.18;1.65;;;;;;;4.08;36.89;100581.38;5102147;28;21100;-74
2021/03/17 03:30:23;;;;;;;2.60;1.17;;;;;;;4.08;37.14;100590.22;5096683;28;20394;-75
2021/03/17 03:33:28;;;;;;;2.22;1.20;;;;;;;4.15;36.27;100594.22;5099514;28;20039;-75
2021/03/17 03:36:32;;;;;;;2.15;1.13;;;;;;;4.11;36.97;100592.69;5100550;28;20047;-74
2021/03/17 03:39:36;;;;;;;3.78;1.10;;;;;;;4.06;36.86;100594.75;5108851;28;20054;-75
2021/03/17 03:42:42;;;;;;;4.53;1.55;;;;;;;4.12;36.91;100590.91;5109791;28;20046;-75
2021/03/17 03:45:47;;;;;;;3.20;1.45;;;;;;;4.02;37.17;100587.94;5098058;28;20062;-75
2021/03/17 03:48:51;;;;;;;2.22;0.98;;;;;;;3.95;36.99;100592.72;5110390;28;20482;-74
2021/03/17 03:52:13;;;;;;;4.53;1.48;;;;;;;3.97;37.16;100605.91;5113616;28;20051;-72
2021/03/17 03:55:33;;;;;;;2.22;1.30;;;;;;;3.97;37.56;100606.75;5108818;28;20406;-74
2021/03/17 03:58:37;;;;;;;2.17;1.15;;;;;;;3.96;37.29;100614.81;5108920;28;20402;-75
2021/03/17 04:01:52;;;;;;;3.08;1.30;;;;;;;3.91;37.75;100611.56;5109814;28;20046;-75
2021/03/17 04:04:59;;;;;;;5.32;1.42;;;;;;;3.91;37.77;100612.44;5113819;28;20046;-75
2021/03/17 04:08:15;;;;;;;2.97;1.02;;;;;;;3.98;37.56;100615.56;5089910;28;20047;-73
2021/03/17 04:11:22;;;;;;;6.05;1.20;;;;;;;3.93;37.71;100614.97;5109115;28;20039;-74
2021/03/17 04:14:29;;;;;;;5.18;1.63;;;;;;;3.83;37.88;100608.47;5098710;28;20045;-75
2021/03/17 04:17:39;;;;;;;4.05;1.42;;;;;;;3.85;38.03;100626.03;5112900;28;20042;-74
2021/03/17 04:20:47;;;;;;;3.30;1.30;;;;;;;3.84;38.38;100623.47;5110113;28;20055;-74
2021/03/17 04:23:55;;;;;;;2.42;1.10;;;;;;;3.92;37.98;100615.94;5112192;28;20160;-74
2021/03/17 04:27:01;;;;;;;5.32;1.15;;;;;;;3.82;38.24;100620.06;5090886;28;20043;-75
2021/03/17 04:30:08;;;;;;;3.08;1.15;;;;;;;3.81;38.09;100615.69;5110594;28;20070;-74
2021/03/17 04:33:14;;;;;;;4.25;1.02;;;;;;;3.80;37.63;100613.97;5112286;28;20051;-75
2021/03/17 04:36:19;;;;;;;2.50;1.08;;;;;;;3.82;37.77;100612.09;5108316;28;20417;-74
2021/03/17 04:39:25;;;;;;;2.88;1.33;;;;;;;3.81;37.66;100613.88;5097473;28;20047;-72
2021/03/17 04:42:30;;;;;;;7.03;1.45;;;;;;;3.87;37.58;100615.34;5111433;28;20133;-73
2021/03/17 04:45:34;;;;;;;3.33;1.65;;;;;;;3.87;37.18;100608.25;5099783;28;20054;-73
2021/03/17 04:48:43;;;;;;;4.00;1.52;;;;;;;3.88;37.41;100619.69;5108427;28;20054;-74
2021/03/17 04:51:48;;;;;;;3.67;1.63;;;;;;;3.81;37.33;100607.72;5110334;28;20074;-73
2021/03/17 04:54:54;;;;;;;3.00;1.40;;;;;;;3.82;36.99;100602.34;5099460;28;20043;-73
2021/03/17 04:58:01;;;;;;;3.72;1.55;;;;;;;3.82;37.27;100601.47;5095589;28;20050;-75
2021/03/17 05:01:11;;;;;;;4.65;1.50;;;;;;;3.79;37.30;100602.50;5110016;28;20382;-72
2021/03/17 05:04:16;;;;;;;3.35;1.40;;;;;;;3.74;37.53;100601.91;5112617;28;20043;-75
2021/03/17 05:07:22;;;;;;;9.68;1.63;;;;;;;3.76;37.56;100597.34;5108660;28;20502;-75
2021/03/17 05:10:27;;;;;;;3.35;1.77;;;;;;;3.71;37.74;100596.75;5109916;28;20051;-74
2021/03/17 05:13:35;;;;;;;3.70;1.80;;;;;;;3.62;37.85;100594.63;5111470;28;20055;-72
2021/03/17 05:16:41;;;;;;;5.43;2.15;;;;;;;3.59;38.36;100600.09;5108079;28;20075;-74
2021/03/17 05:19:45;;;;;;;6.70;2.17;;;;;;;3.60;38.13;100598.31;5109655;28;20051;-73
2021/03/17 05:22:50;;;;;;;8.85;1.88;;;;;;;3.55;38.91;100595.03;5111242;28;20574;-71
2021/03/17 05:25:55;;;;;;;4.18;1.65;;;;;;;3.56;38.72;100600.25;5112250;28;20051;-72
2021/03/17 05:29:00;;;;;;;3.33;1.30;;;;;;;3.52;38.64;100600.50;5095449;28;20042;-72
2021/03/17 05:32:06;;;;;;;8.73;1.60;;;;;;;3.48;39.21;100598.97;5109254;28;20047;-73
2021/03/17 05:35:11;;;;;;;6.35;1.52;;;;;;;3.41;39.23;100602.91;5098281;28;20062;-73
2021/03/17 05:38:15;;;;;;;5.85;1.52;;;;;;;3.49;38.97;100601.53;5112086;28;20063;-73
2021/03/17 05:41:20;;;;;;;5.75;1.92;;;;;;;3.51;39.15;100591.69;5107713;28;20054;-74
2021/03/17 05:44:24;;;;;;;2.40;1.23;;;;;;;3.51;39.25;100606.75;5096823;28;20042;-75
2021/03/17 05:47:29;;;;;;;3.45;1.42;;;;;;;3.56;38.84;100602.03;5113652;28;20402;-74
2021/03/17 05:50:34;;;;;;;2.35;0.93;;;;;;;3.69;38.79;100601.28;5115134;28;20448;-73
2021/03/17 05:53:40;;;;;;;2.33;1.40;;;;;;;3.78;38.48;100594.59;5099052;28;20047;-74
2021/03/17 05:56:44;;;;;;;3.10;1.30;;;;;;;3.80;38.13;100601.53;5116997;28;20062;-72
2021/03/17 05:59:48;;;;;;;6.25;1.42;;;;;;;3.91;38.38;100595.63;5117067;28;20047;-73
2021/03/17 06:02:53;;;;;;;2.17;1.13;;;;;;;4.06;37.76;100607.19;5104339;28;20485;-72
2021/03/17 06:05:58;;;;;;;48.75;29.80;;;;;;;4.23;38.20;100605.28;5104402;28;20161;-74
2021/03/17 06:09:03;;;;;;;16.63;8.52;;;;;;;4.39;37.70;100600.78;5089653;28;20051;-74
2021/03/17 06:12:09;;;;;;;3.42;1.65;;;;;;;4.54;37.42;100615.00;5083521;28;20398;-74
2021/03/17 06:15:20;;;;;;;3.10;1.33;;;;;;;4.67;37.41;100610.63;5081507;28;20398;-72
2021/03/17 06:18:33;;;;;;;7.30;1.38;;;;;;;4.70;37.42;100610.47;5095416;28;20407;-73
2021/03/17 06:21:37;;;;;;;7.15;1.67;;;;;;;4.81;36.88;100605.38;5096223;28;20046;-73
2021/03/17 06:24:43;;;;;;;6.60;2.00;;;;;;;5.07;36.33;100606.44;5083724;28;20055;-72
2021/03/17 06:27:47;;;;;;;10.00;2.55;;;;;;;5.21;36.72;100609.94;5095583;28;20070;-73
2021/03/17 06:30:56;;;;;;;13.27;3.20;;;;;;;5.23;36.06;100609.88;5102141;28;20054;-72
2021/03/17 06:34:00;;;;;;;11.48;2.63;;;;;;;5.34;36.01;100610.06;5112429;28;20042;-73
2021/03/17 06:37:05;;;;;;;10.48;2.22;;;;;;;5.51;36.00;100609.84;5113297;28;20050;-73
2021/03/17 06:40:26;;;;;;;14.52;2.00;;;;;;;5.87;34.94;100610.22;5115066;28;20509;-76
2021/03/17 06:43:41;;;;;;;9.75;1.70;;;;;;;5.85;35.20;100614.78;5114652;28;20047;-73
2021/03/17 06:47:05;;;;;;;13.15;2.10;;;;;;;6.07;35.11;100608.94;5103605;28;20054;-77
2021/03/17 06:50:15;;;;;;;18.35;3.60;;;;;;;6.79;34.41;100605.81;5091263;28;20054;-76
2021/03/17 06:53:35;;;;;;;14.95;3.38;;;;;;;8.77;31.38;100606.53;5063086;28;20056;-74
2021/03/17 06:56:40;;;;;;;7.95;1.40;;;;;;;8.55;31.23;100603.75;5075247;28;20048;-76
2021/03/17 06:59:45;;;;;;;9.15;2.05;;;;;;;8.34;31.61;100608.91;5062919;28;20055;-75
2021/03/17 07:02:59;;;;;;;11.23;1.70;;;;;;;8.52;31.56;100613.72;5074636;28;20056;-76
2021/03/17 07:06:09;;;;;;;;;;;;;;;8.17;32.07;100617.31;5075588;28;20051;-73
2021/03/17 07:09:27;;;;;;;5.53;1.70;;;;;;;8.46;32.03;100618.69;5074897;28;19916;-74
2021/03/17 07:12:31;;;;;;;9.07;1.50;;;;;;;8.34;32.26;100617.81;5062770;28;20067;-73
2021/03/17 07:15:37;;;;;;;10.18;1.30;;;;;;;8.57;32.24;100608.03;5062927;28;20060;-73
2021/03/17 07:18:42;;;;;;;14.70;2.65;;;;;;;9.07;31.38;100612.19;5074664;28;20043;-75
2021/03/17 07:21:46;;;;;;;8.98;1.73;;;;;;;10.57;29.47;100602.66;5062264;28;20387;-75
2021/03/17 07:24:55;;;;;;;5.82;1.70;;;;;;;14.11;24.83;100597.81;5074098;28;20056;-74
2021/03/17 07:28:02;;;;;;;7.32;1.33;;;;;;;14.58;23.91;100602.06;5073947;28;20497;-76
2021/03/17 07:31:16;;;;;;;8.32;1.52;;;;;;;15.10;23.10;100604.88;5073513;28;20048;-74
2021/03/17 07:34:26;;;;;;;5.53;1.38;;;;;;;15.76;22.13;100608.72;5061833;28;20055;-74
2021/03/17 07:37:30;;;;;;;5.03;1.27;;;;;;;14.60;23.63;100605.47;5106891;28;20051;-75
2021/03/17 07:40:37;;;;;;;5.78;1.17;;;;;;;16.64;21.58;100591.09;5093098;28;20046;-74
2021/03/17 07:43:42;;;;;;;7.38;1.33;;;;;;;18.30;20.06;100582.03;5095697;28;20402;-76
2021/03/17 07:46:49;;;;;;;6.32;1.30;;;;;;;23.75;15.93;100592.47;5105769;28;20106;-73
2021/03/17 07:49:54;;;;;;;5.50;1.65;;;;;;;27.52;13.11;100576.31;5109506;28;20397;-73
2021/03/17 07:53:01;;;;;;;5.63;1.23;;;;;;;28.33;12.36;100583.66;5098614;28;20508;-74
2021/03/17 07:56:06;;;;;;;6.15;0.82;;;;;;;31.51;10.45;100578.91;5102025;28;20047;-74
2021/03/17 07:59:10;;;;;;;7.70;1.25;;;;;;;35.72;8.95;100576.28;5095011;28;20077;-76
2021/03/17 08:02:17;;;;;;;9.77;1.27;;;;;;;36.46;8.00;100578.47;5092724;28;20051;-75
2021/03/17 08:05:22;;;;;;;3.25;1.00;;;;;;;36.65;8.03;100576.56;5073451;28;20047;-76
2021/03/17 08:08:28;;;;;;;3.72;1.40;;;;;;;37.56;7.40;100573.16;5072687;28;20063;-74
2021/03/17 08:11:33;;;;;;;8.23;1.17;;;;;;;38.56;7.66;100574.28;5072771;28;20051;-75
2021/03/17 08:14:42;;;;;;;5.82;0.90;;;;;;;40.85;7.22;100569.50;5060875;28;20067;-75
2021/03/17 08:17:46;;;;;;;5.55;1.20;;;;;;;41.24;6.71;100571.34;5073026;28;20051;-72
2021/03/17 08:20:51;;;;;;;5.78;1.00;;;;;;;40.14;6.57;100568.03;5084205;28;20051;-76
2021/03/17 08:23:55;;;;;;;2.28;0.88;;;;;;;42.28;6.47;100579.22;5080693;28;20496;-78
2021/03/17 08:27:03;;;;;;;2.00;0.68;;;;;;;43.54;5.59;100576.09;5093029;28;20051;-78
2021/03/17 08:30:10;;;;;;;4.82;0.73;;;;;;;42.83;5.94;100566.91;5071679;28;20067;-76
2021/03/17 08:33:32;;;;;;;2.13;0.60;;;;;;;41.01;6.26;100578.34;5089637;28;20055;-78
2021/03/17 08:36:42;;;;;;;7.20;1.00;;;;;;;39.71;6.03;100573.44;5095722;28;20521;-78
2021/03/17 08:39:48;;;;;;;3.67;0.80;;;;;;;41.40;6.40;100573.38;5072899;28;20055;-77
2021/03/17 08:42:52;;;;;;;2.72;0.82;;;;;;;42.72;6.02;100572.97;5072712;28;20067;-79
2021/03/17 08:46:08;;;;;;;4.55;1.00;;;;;;;44.38;5.67;100569.75;5072974;28;20404;-79
2021/03/17 08:49:14;;;;;;;4.40;0.80;;;;;;;43.22;5.88;100566.41;5060446;28;20067;-78
2021/03/17 08:52:20;;;;;;;3.33;0.90;;;;;;;41.60;6.06;100574.63;5087822;28;20043;-77
2021/03/17 08:55:39;;;;;;;6.53;0.90;;;;;;;40.95;5.76;100568.38;5063580;28;20066;-81
2021/03/17 08:59:04;;;;;;;5.88;0.73;;;;;;;41.65;5.97;100565.16;5087025;28;20050;-80
2021/03/17 09:02:42;;;;;;;6.68;1.02;;;;;;;41.97;6.05;100561.75;5099941;28;20506;-77
2021/03/17 09:06:04;;;;;;;3.70;0.90;;;;;;;42.62;5.67;100556.44;5100571;28;20395;-74
2021/03/17 09:09:17;;;;;;;3.97;1.00;;;;;;;42.78;5.70;100564.28;5113420;28;20050;-74
2021/03/17 09:12:25;;;;;;;2.63;0.80;;;;;;;41.40;6.04;100564.91;5073663;28;20056;-75
2021/03/17 09:15:42;;;;;;;3.35;0.80;;;;;;;40.47;6.89;100568.50;5092631;28;20043;-75
2021/03/17 09:19:08;;;;;;;5.32;0.93;;;;;;;38.80;7.18;100558.88;5100528;28;20054;-75
2021/03/17 09:22:36;;;;;;;4.75;0.95;;;;;;;37.99;6.87;100561.72;5075466;28;20044;-76
2021/03/17 09:25:45;;;;;;;5.63;1.17;;;;;;;37.55;7.06;100557.50;5114973;28;20047;-73
2021/03/17 09:28:49;;;;;;;11.40;1.15;;;;;;;33.50;8.31;100557.91;5116525;28;20050;-74
2021/03/17 09:31:54;;;;;;;9.73;1.98;;;;;;;29.61;10.03;100558.91;5108672;28;20110;-77
2021/03/17 09:34:59;;;;;;;3.70;0.80;;;;;;;26.39;12.66;100569.97;5077924;28;20055;-74
2021/03/17 09:38:12;;;;;;;4.05;1.00;;;;;;;24.30;13.33;100566.31;5082371;28;20047;-78
2021/03/17 09:41:22;;;;;;;4.45;0.95;;;;;;;22.11;15.46;100564.84;5076127;28;20047;-78
2021/03/17 09:44:26;;;;;;;3.65;0.73;;;;;;;20.25;15.55;100566.41;5075911;28;20502;-77
2021/03/17 09:47:31;;;;;;;2.22;0.95;;;;;;;19.37;16.42;100580.06;5075931;28;20059;-73
2021/03/17 09:50:36;;;;;;;2.38;0.88;;;;;;;18.91;16.54;100568.41;5075492;28;20052;-72
2021/03/17 09:53:40;;;;;;;2.60;1.00;;;;;;;18.66;16.40;100572.34;5076064;28;20048;-76
2021/03/17 09:56:50;;;;;;;3.85;0.80;;;;;;;18.52;16.78;100565.81;5079943;28;20573;-74
2021/03/17 09:59:55;;;;;;;2.50;1.08;;;;;;;17.70;17.38;100563.66;5083664;28;20047;-73
2021/03/17 10:03:01;;;;;;;5.93;1.35;;;;;;;17.45;18.02;100559.31;5083485;28;20463;-72
2021/03/17 10:06:05;;;;;;;8.80;1.50;;;;;;;17.03;18.81;100556.84;5075560;28;20044;-73
2021/03/17 10:09:10;;;;;;;3.03;1.17;;;;;;;16.73;18.99;100552.13;5075738;28;20051;-74
2021/03/17 10:12:17;;;;;;;4.57;1.52;;;;;;;16.64;19.55;100555.84;5075298;28;20372;-74
2021/03/17 10:15:23;;;;;;;5.57;1.95;;;;;;;16.36;19.36;100549.00;5075791;28;20051;-73
2021/03/17 10:18:28;;;;;;;3.97;1.38;;;;;;;16.48;19.35;100548.50;5075333;28;20079;-74
2021/03/17 10:21:33;;;;;;;2.60;1.20;;;;;;;16.37;18.22;100537.97;5088054;28;20454;-75
2021/03/17 10:24:45;;;;;;;4.10;0.93;;;;;;;16.62;18.32;100537.03;5091826;28;20056;-75
2021/03/17 10:27:57;;;;;;;8.00;1.98;;;;;;;16.63;18.36;100536.00;5075241;28;20399;-73
2021/03/17 10:31:02;;;;;;;4.75;1.30;;;;;;;16.58;18.90;100534.81;5064435;28;20047;-75
2021/03/17 10:34:13;;;;;;;4.35;1.00;;;;;;;16.40;19.11;100537.66;5095166;28;20494;-74
2021/03/17 10:37:20;;;;;;;3.78;1.10;;;;;;;16.31;19.20;100533.25;5078112;28;20079;-74
2021/03/17 10:40:26;;;;;;;3.30;1.20;;;;;;;15.73;18.68;100527.81;5086359;28;20047;-74
2021/03/17 10:43:31;;;;;;;4.53;1.38;;;;;;;15.33;18.47;100533.03;5087810;28;20051;-74
2021/03/17 10:46:56;;;;;;;7.90;1.27;;;;;;;15.02;18.75;100527.25;5081857;28;20055;-72
2021/03/17 10:50:01;;;;;;;3.83;1.10;;;;;;;15.36;19.23;100520.03;5094794;28;20059;-73
2021/03/17 10:53:34;;;;;;;4.47;1.27;;;;;;;15.59;19.10;100514.94;5095022;28;20066;-74
2021/03/17 10:56:38;;;;;;;3.38;1.38;;;;;;;15.76;20.28;100511.28;5074487;28;20064;-72
2021/03/17 10:59:45;;;;;;;4.13;1.10;;;;;;;15.82;19.55;100501.66;5074592;28;20047;-72
2021/03/17 11:02:50;;;;;;;4.20;0.80;;;;;;;15.87;19.13;100488.47;5061853;28;20051;-74
2021/03/17 11:06:17;;;;;;;7.05;1.10;;;;;;;15.69;20.20;100494.00;5074490;28;20063;-73
2021/03/17 11:09:21;;;;;;;4.40;1.10;;;;;;;15.69;19.19;100488.59;5062123;28;20499;-73
2021/03/17 11:12:29;;;;;;;7.30;1.02;;;;;;;15.65;19.38;100495.34;5064908;28;20510;-74
2021/03/17 11:15:34;;;;;;;3.78;1.10;;;;;;;15.63;19.58;100496.50;5094728;28;20043;-73
2021/03/17 11:18:51;;;;;;;4.38;1.10;;;;;;;15.33;19.00;100495.16;5094174;28;20418;-75
2021/03/17 11:21:55;;;;;;;3.95;1.10;;;;;;;15.32;19.23;100488.06;5101381;28;20391;-73
2021/03/17 11:25:07;;;;;;;2.72;0.90;;;;;;;15.33;19.76;100482.47;5114818;28;20047;-72
2021/03/17 11:28:17;;;;;;;3.63;1.10;;;;;;;15.40;20.34;100479.97;5087067;28;20051;-74
2021/03/17 11:31:26;;;;;;;2.20;0.80;;;;;;;15.41;18.76;100477.09;5093672;28;20051;-71
2021/03/17 11:34:30;;;;;;;3.72;0.80;;;;;;;15.29;18.36;100467.59;5093980;28;20059;-73
2021/03/17 11:37:35;;;;;;;2.33;0.95;;;;;;;15.24;18.49;100463.66;5093278;28;20055;-74
2021/03/17 11:40:41;;;;;;;8.77;1.15;;;;;;;15.14;19.83;100461.09;5093748;28;20048;-74
2021/03/17 11:43:46;;;;;;;6.03;0.85;;;;;;;15.14;20.02;100457.53;5092710;28;20047;-74
2021/03/17 11:46:51;;;;;;;2.53;1.08;;;;;;;15.19;19.87;100453.34;5092758;28;20051;-76
2021/03/17 11:49:55;;;;;;;2.78;0.80;;;;;;;15.09;19.40;100460.72;5093523;28;20055;-73
2021/03/17 11:53:00;;;;;;;2.75;1.13;;;;;;;15.03;18.90;100460.53;5093927;28;20070;-74
2021/03/17 11:56:06;;;;;;;2.78;0.90;;;;;;;14.78;19.25;100452.28;5093653;28;20043;-74
2021/03/17 11:59:10;;;;;;;2.90;0.85;;;;;;;14.89;19.55;100443.03;5100253;28;20042;-72
2021/03/17 12:02:14;;;;;;;5.50;1.08;;;;;;;14.96;19.42;100444.09;5113792;28;20051;-73
2021/03/17 12:05:19;;;;;;;5.70;1.10;;;;;;;14.99;19.43;100432.94;5113599;28;20055;-74
2021/03/17 12:08:25;;;;;;;2.75;0.90;;;;;;;15.01;18.87;100438.22;5113814;28;20055;-72
2021/03/17 12:11:30;;;;;;;7.20;1.10;;;;;;;15.04;19.02;100425.22;5078255;28;20047;-73
2021/03/17 12:14:34;;;;;;;2.22;0.82;;;;;;;15.20;18.08;100429.84;5089244;28;20505;-73
2021/03/17 12:17:38;;;;;;;3.08;0.80;;;;;;;15.29;17.78;100423.47;5089617;28;20046;-74
2021/03/17 12:20:43;;;;;;;2.90;0.80;;;;;;;15.21;18.63;100418.88;5089289;28;20055;-74
2021/03/17 12:23:48;;;;;;;1.95;0.70;;;;;;;15.09;18.06;100417.47;5077486;28;20046;-72
2021/03/17 12:26:53;;;;;;;2.38;0.95;;;;;;;15.05;18.25;100409.84;5077886;28;20058;-75
2021/03/17 12:29:57;;;;;;;2.13;0.88;;;;;;;15.21;17.96;100410.75;5088576;28;20055;-74
2021/03/17 12:33:02;;;;;;;2.53;0.90;;;;;;;15.20;18.18;100406.38;5077318;28;20046;-74
2021/03/17 12:36:06;;;;;;;5.50;1.00;;;;;;;15.26;18.40;100394.88;5077535;28;20399;-73
2021/03/17 12:39:10;;;;;;;5.75;0.90;;;;;;;15.30;18.66;100396.28;5077996;28;20402;-75
2021/03/17 12:42:14;;;;;;;3.10;1.02;;;;;;;15.37;18.89;100388.34;5077676;28;20050;-77
2021/03/17 12:45:22;;;;;;;1.73;0.93;;;;;;;15.38;18.55;100393.56;5077752;28;20058;-74
2021/03/17 12:48:26;;;;;;;2.17;0.85;;;;;;;15.43;18.24;100393.91;5077793;28;20075;-73
2021/03/17 12:51:30;;;;;;;1.75;0.75;;;;;;;15.32;17.16;100396.09;5077490;28;20059;-74
2021/03/17 12:54:35;;;;;;;3.22;0.70;;;;;;;15.13;16.96;100386.41;5088998;28;20062;-76
2021/03/17 12:57:40;;;;;;;2.58;1.00;;;;;;;15.12;17.59;100378.44;5081803;28;20059;-76
2021/03/17 13:00:45;;;;;;;2.05;0.82;;;;;;;15.11;17.32;100376.75;5081472;28;20047;-74
2021/03/17 13:03:50;;;;;;;1.52;0.65;;;;;;;15.16;16.76;100374.41;5081732;28;20066;-75
2021/03/17 13:06:54;;;;;;;2.78;0.80;;;;;;;15.11;16.81;100369.47;5092942;28;20402;-75
2021/03/17 13:09:58;;;;;;;3.17;0.90;;;;;;;15.13;16.74;100359.38;5081801;28;20422;-75
2021/03/17 13:13:03;;;;;;;2.58;0.70;;;;;;;15.25;17.20;100362.59;5093261;28;20043;-74
2021/03/17 13:16:07;;;;;;;3.40;1.10;;;;;;;15.31;17.17;100354.66;5081373;28;20046;-75
2021/03/17 13:19:12;;;;;;;5.85;1.23;;;;;;;15.43;16.45;100355.22;5117366;28;20489;-74
2021/03/17 13:22:17;;;;;;;4.10;0.90;;;;;;;15.38;16.22;100341.34;5117218;28;20047;-75
2021/03/17 13:25:21;;;;;;;2.65;0.75;;;;;;;15.39;16.40;100354.69;5117064;28;20385;-74
2021/03/17 13:28:25;;;;;;;4.43;0.80;;;;;;;15.29;15.84;100353.16;5104029;28;20047;-74
2021/03/17 13:31:29;;;;;;;3.75;0.80;;;;;;;15.42;16.07;100354.38;5083902;28;20051;-74
2021/03/17 13:34:34;;;;;;;2.40;0.85;;;;;;;15.36;16.26;100348.75;5089448;28;20507;-76
2021/03/17 13:37:39;;;;;;;2.85;0.80;;;;;;;15.19;16.07;100347.03;5080506;28;20055;-75
2021/03/17 13:40:45;;;;;;;1.90;0.70;;;;;;;15.16;15.92;100347.38;5092274;28;20047;-74
2021/03/17 13:43:50;;;;;;;3.70;0.73;;;;;;;15.10;16.18;100337.22;5084997;28;20052;-74
2021/03/17 13:46:54;;;;;;;1.30;0.60;;;;;;;15.10;16.89;100338.06;5093219;28;20387;-76
2021/03/17 13:49:58;;;;;;;1.67;0.60;;;;;;;15.06;16.21;100331.28;5063115;28;20067;-75
2021/03/17 13:53:03;;;;;;;3.08;0.75;;;;;;;15.06;16.27;100327.75;5075174;28;20047;-76
2021/03/17 13:56:09;;;;;;;1.45;0.63;;;;;;;15.03;16.71;100334.31;5094980;28;20058;-77
2021/03/17 13:59:13;;;;;;;3.55;0.80;;;;;;;15.16;16.54;100329.28;5090519;28;20063;-77
2021/03/17 14:02:19;;;;;;;3.65;0.80;;;;;;;15.16;17.61;100325.75;5078452;28;20111;-74
2021/03/17 14:05:23;;;;;;;3.60;0.82;;;;;;;15.09;17.12;100330.94;5114719;28;20071;-76
2021/03/17 14:08:28;;;;;;;2.50;0.90;;;;;;;15.04;17.62;100333.28;5114336;28;20066;-75
2021/03/17 14:11:33;;;;;;;1.60;0.80;;;;;;;15.02;17.19;100323.66;5106112;28;20047;-76
2021/03/17 14:14:37;;;;;;;3.22;0.80;;;;;;;15.08;17.39;100321.16;5062692;28;20055;-76
2021/03/17 14:17:43;;;;;;;2.97;0.90;;;;;;;15.11;17.57;100317.28;5084769;28;20513;-75
2021/03/17 14:20:47;;;;;;;1.80;0.63;;;;;;;15.12;16.87;100313.56;5061421;28;20059;-76
2021/03/17 14:23:51;;;;;;;3.42;0.95;;;;;;;15.13;17.88;100312.56;5111892;28;20050;-76
2021/03/17 14:26:56;;;;;;;2.13;0.85;;;;;;;15.13;17.80;100312.56;5094082;28;20047;-76
2021/03/17 14:30:02;;;;;;;2.60;0.77;;;;;;;15.13;17.54;100312.56;5094322;28;20051;-78
2021/03/17 14:33:09;;;;;;;3.45;0.70;;;;;;;15.09;16.58;100303.91;5054968;28;20512;-77
2021/03/17 14:36:14;;;;;;;2.30;0.90;;;;;;;15.07;16.58;100303.22;5075375;28;20059;-74
2021/03/17 14:39:19;;;;;;;1.60;0.80;;;;;;;14.97;16.33;100295.28;5073667;28;20507;-75
2021/03/17 14:42:25;;;;;;;2.67;0.90;;;;;;;14.95;16.87;100294.59;5101921;28;20089;-76